sensor_id;sensor_type;location;lat;lon;timestamp;temperature;humidity
46378;DHT22;32083;47.360;9.650;2023-03-14T00:30:47;12.20;99.90
46378;DHT22;32083;47.360;9.650;2023-03-14T00:33:34;12.10;99.90
46378;DHT22;32083;47.360;9.650;2023-03-14T00:41:18;12.10;99.90
46378;DHT22;32083;47.360;9.650;2023-03-14T00:45:00;12.10;99.90
46378;DHT22;32083;47.360;9.650;2023-03-14T00:47:54;11.90;99.90
46378;DHT22;32083;47.360;9.650;2023-03-14T00:50:29;11.70;99.90
46378;DHT22;32083;47.360;9.650;2023-03-14T00:53:44;11.50;99.90
46378;DHT22;32083;47.360;9.650;2023-03-14T00:56:47;11.50;99.90
46378;DHT22;32083;47.360;9.650;2023-03-14T02:27:07;10.40;99.90
46378;DHT22;32083;47.360;9.650;2023-03-14T02:51:37;10.30;99.90
46378;DHT22;32083;47.360;9.650;2023-03-14T03:23:45;9.60;99.90
46378;DHT22;32083;47.360;9.650;2023-03-14T04:54:55;9.60;99.90
46378;DHT22;32083;47.360;9.650;2023-03-14T05:01:08;9.50;99.90
46378;DHT22;32083;47.360;9.650;2023-03-14T05:03:34;9.60;99.90
46378;DHT22;32083;47.360;9.650;2023-03-14T05:06:01;9.50;99.90
46378;DHT22;32083;47.360;9.650;2023-03-14T05:08:27;9.50;99.90
46378;DHT22;32083;47.360;9.650;2023-03-14T05:10:54;9.50;99.90
46378;DHT22;32083;47.360;9.650;2023-03-14T05:13:20;9.50;99.90
46378;DHT22;32083;47.360;9.650;2023-03-14T05:15:47;9.50;99.90
46378;DHT22;32083;47.360;9.650;2023-03-14T05:18:13;9.50;99.90
46378;DHT22;32083;47.360;9.650;2023-03-14T05:20:39;9.40;99.90
46378;DHT22;32083;47.360;9.650;2023-03-14T05:23:05;9.40;99.90
46378;DHT22;32083;47.360;9.650;2023-03-14T05:25:31;9.40;99.90
46378;DHT22;32083;47.360;9.650;2023-03-14T05:27:57;9.50;99.90
46378;DHT22;32083;47.360;9.650;2023-03-14T05:30:23;9.40;99.90
46378;DHT22;32083;47.360;9.650;2023-03-14T05:32:49;9.40;99.90
46378;DHT22;32083;47.360;9.650;2023-03-14T05:35:15;9.40;99.90
46378;DHT22;32083;47.360;9.650;2023-03-14T05:37:41;9.40;99.90
46378;DHT22;32083;47.360;9.650;2023-03-14T05:40:07;9.40;99.90
46378;DHT22;32083;47.360;9.650;2023-03-14T05:42:34;9.30;99.90
46378;DHT22;32083;47.360;9.650;2023-03-14T05:45:00;9.30;99.90
46378;DHT22;32083;47.360;9.650;2023-03-14T05:47:26;9.20;99.90
46378;DHT22;32083;47.360;9.650;2023-03-14T05:49:52;9.20;99.90
46378;DHT22;32083;47.360;9.650;2023-03-14T05:52:18;9.20;99.90
46378;DHT22;32083;47.360;9.650;2023-03-14T05:54:44;9.20;99.90
46378;DHT22;32083;47.360;9.650;2023-03-14T05:57:10;9.30;99.90
46378;DHT22;32083;47.360;9.650;2023-03-14T05:59:36;9.30;99.90
46378;DHT22;32083;47.360;9.650;2023-03-14T06:02:02;9.30;99.90
46378;DHT22;32083;47.360;9.650;2023-03-14T06:04:28;9.30;99.90
46378;DHT22;32083;47.360;9.650;2023-03-14T06:06:54;9.20;99.90
46378;DHT22;32083;47.360;9.650;2023-03-14T06:09:20;9.30;99.90
46378;DHT22;32083;47.360;9.650;2023-03-14T06:11:49;9.20;99.90
46378;DHT22;32083;47.360;9.650;2023-03-14T06:14:15;9.30;99.90
46378;DHT22;32083;47.360;9.650;2023-03-14T06:16:41;9.30;99.90
46378;DHT22;32083;47.360;9.650;2023-03-14T06:19:07;9.20;99.90
46378;DHT22;32083;47.360;9.650;2023-03-14T06:21:32;9.20;99.90
46378;DHT22;32083;47.360;9.650;2023-03-14T06:23:58;9.20;99.90
46378;DHT22;32083;47.360;9.650;2023-03-14T06:26:24;9.20;99.90
46378;DHT22;32083;47.360;9.650;2023-03-14T06:28:50;9.20;99.90
46378;DHT22;32083;47.360;9.650;2023-03-14T06:31:17;9.20;99.90
46378;DHT22;32083;47.360;9.650;2023-03-14T06:33:43;9.20;99.90
46378;DHT22;32083;47.360;9.650;2023-03-14T06:36:09;9.20;99.90
46378;DHT22;32083;47.360;9.650;2023-03-14T06:38:35;9.20;99.90
46378;DHT22;32083;47.360;9.650;2023-03-14T06:41:05;9.20;99.90
46378;DHT22;32083;47.360;9.650;2023-03-14T06:43:31;9.20;99.90
46378;DHT22;32083;47.360;9.650;2023-03-14T06:45:57;9.20;99.90
46378;DHT22;32083;47.360;9.650;2023-03-14T06:53:34;9.30;99.90
46378;DHT22;32083;47.360;9.650;2023-03-14T06:56:00;9.20;99.90
46378;DHT22;32083;47.360;9.650;2023-03-14T06:58:26;9.20;99.90
46378;DHT22;32083;47.360;9.650;2023-03-14T07:00:53;9.20;99.90
46378;DHT22;32083;47.360;9.650;2023-03-14T07:03:20;9.30;99.90
46378;DHT22;32083;47.360;9.650;2023-03-14T07:05:46;9.20;99.90
46378;DHT22;32083;47.360;9.650;2023-03-14T07:08:12;9.30;99.90
46378;DHT22;32083;47.360;9.650;2023-03-14T07:10:38;9.30;99.90
46378;DHT22;32083;47.360;9.650;2023-03-14T07:13:04;9.30;99.90
46378;DHT22;32083;47.360;9.650;2023-03-14T07:15:30;9.30;99.90
46378;DHT22;32083;47.360;9.650;2023-03-14T07:17:56;9.30;99.90
46378;DHT22;32083;47.360;9.650;2023-03-14T07:20:22;9.30;99.90
46378;DHT22;32083;47.360;9.650;2023-03-14T07:22:49;9.30;99.90
46378;DHT22;32083;47.360;9.650;2023-03-14T07:25:16;9.40;99.90
46378;DHT22;32083;47.360;9.650;2023-03-14T07:27:45;9.50;99.90
46378;DHT22;32083;47.360;9.650;2023-03-14T07:30:13;9.50;99.90
46378;DHT22;32083;47.360;9.650;2023-03-14T07:32:40;9.60;99.90
46378;DHT22;32083;47.360;9.650;2023-03-14T07:35:06;9.60;99.90
46378;DHT22;32083;47.360;9.650;2023-03-14T07:37:32;9.70;99.90
46378;DHT22;32083;47.360;9.650;2023-03-14T07:39:58;9.70;99.90
46378;DHT22;32083;47.360;9.650;2023-03-14T07:42:24;9.70;99.90
46378;DHT22;32083;47.360;9.650;2023-03-14T07:44:50;9.70;99.90
46378;DHT22;32083;47.360;9.650;2023-03-14T07:47:16;9.80;99.90
46378;DHT22;32083;47.360;9.650;2023-03-14T07:49:42;9.80;99.90
46378;DHT22;32083;47.360;9.650;2023-03-14T07:52:08;9.90;99.90
46378;DHT22;32083;47.360;9.650;2023-03-14T07:54:35;10.00;99.90
46378;DHT22;32083;47.360;9.650;2023-03-14T08:04:56;10.30;99.90
46378;DHT22;32083;47.360;9.650;2023-03-14T08:07:22;10.30;99.90
46378;DHT22;32083;47.360;9.650;2023-03-14T08:09:48;10.40;99.90
46378;DHT22;32083;47.360;9.650;2023-03-14T08:12:14;10.40;99.90
46378;DHT22;32083;47.360;9.650;2023-03-14T08:14:41;10.40;99.90
46378;DHT22;32083;47.360;9.650;2023-03-14T08:19:42;10.50;99.90
46378;DHT22;32083;47.360;9.650;2023-03-14T08:22:09;10.70;99.90
46378;DHT22;32083;47.360;9.650;2023-03-14T08:24:35;10.80;99.90
46378;DHT22;32083;47.360;9.650;2023-03-14T08:27:04;10.90;99.90
46378;DHT22;32083;47.360;9.650;2023-03-14T08:29:30;11.00;99.90
46378;DHT22;32083;47.360;9.650;2023-03-14T08:31:56;11.10;99.90
46378;DHT22;32083;47.360;9.650;2023-03-14T08:34:25;11.00;99.90
46378;DHT22;32083;47.360;9.650;2023-03-14T08:36:51;11.00;99.90
46378;DHT22;32083;47.360;9.650;2023-03-14T08:39:17;11.00;99.90
46378;DHT22;32083;47.360;9.650;2023-03-14T08:41:43;11.20;99.90
46378;DHT22;32083;47.360;9.650;2023-03-14T08:44:10;11.30;99.90
46378;DHT22;32083;47.360;9.650;2023-03-14T08:46:39;11.40;99.90
46378;DHT22;32083;47.360;9.650;2023-03-14T08:49:05;11.40;99.90
46378;DHT22;32083;47.360;9.650;2023-03-14T08:51:31;11.40;99.90
46378;DHT22;32083;47.360;9.650;2023-03-14T08:53:57;11.40;99.90
46378;DHT22;32083;47.360;9.650;2023-03-14T08:56:25;11.40;99.90
46378;DHT22;32083;47.360;9.650;2023-03-14T08:58:51;11.40;99.90
46378;DHT22;32083;47.360;9.650;2023-03-14T09:01:17;11.40;99.90
46378;DHT22;32083;47.360;9.650;2023-03-14T09:03:45;11.40;99.90
46378;DHT22;32083;47.360;9.650;2023-03-14T09:06:12;11.40;99.90
46378;DHT22;32083;47.360;9.650;2023-03-14T09:08:38;11.40;99.90
46378;DHT22;32083;47.360;9.650;2023-03-14T09:11:07;11.50;99.90
46378;DHT22;32083;47.360;9.650;2023-03-14T09:13:34;11.50;99.90
46378;DHT22;32083;47.360;9.650;2023-03-14T09:16:01;11.50;99.90
46378;DHT22;32083;47.360;9.650;2023-03-14T09:18:27;11.50;99.90
46378;DHT22;32083;47.360;9.650;2023-03-14T09:20:55;11.40;99.90
46378;DHT22;32083;47.360;9.650;2023-03-14T09:23:22;11.50;99.90
46378;DHT22;32083;47.360;9.650;2023-03-14T09:25:48;11.40;99.90
46378;DHT22;32083;47.360;9.650;2023-03-14T09:28:14;11.50;99.90
46378;DHT22;32083;47.360;9.650;2023-03-14T09:30:41;11.50;99.90
46378;DHT22;32083;47.360;9.650;2023-03-14T09:33:06;11.50;99.90
46378;DHT22;32083;47.360;9.650;2023-03-14T09:35:34;11.60;99.90
46378;DHT22;32083;47.360;9.650;2023-03-14T09:38:00;11.70;99.90
46378;DHT22;32083;47.360;9.650;2023-03-14T09:40:32;11.90;99.90
46378;DHT22;32083;47.360;9.650;2023-03-14T09:42:59;12.00;99.90
46378;DHT22;32083;47.360;9.650;2023-03-14T09:45:36;12.00;99.90
46378;DHT22;32083;47.360;9.650;2023-03-14T09:48:08;12.10;99.90
46378;DHT22;32083;47.360;9.650;2023-03-14T09:50:44;12.10;99.90
46378;DHT22;32083;47.360;9.650;2023-03-14T09:53:20;12.10;99.90
46378;DHT22;32083;47.360;9.650;2023-03-14T09:55:50;12.00;99.90
46378;DHT22;32083;47.360;9.650;2023-03-14T09:58:23;12.10;99.90
46378;DHT22;32083;47.360;9.650;2023-03-14T10:00:52;12.10;99.90
46378;DHT22;32083;47.360;9.650;2023-03-14T10:05:49;12.00;99.90
46378;DHT22;32083;47.360;9.650;2023-03-14T10:08:17;12.00;99.90
46378;DHT22;32083;47.360;9.650;2023-03-14T10:10:43;12.00;99.90
46378;DHT22;32083;47.360;9.650;2023-03-14T10:13:21;12.00;99.90
46378;DHT22;32083;47.360;9.650;2023-03-14T10:16:03;12.00;99.90
46378;DHT22;32083;47.360;9.650;2023-03-14T10:18:34;11.90;99.90
46378;DHT22;32083;47.360;9.650;2023-03-14T10:21:27;12.00;99.90
46378;DHT22;32083;47.360;9.650;2023-03-14T10:24:26;12.00;99.90
46378;DHT22;32083;47.360;9.650;2023-03-14T10:26:55;12.00;99.90
46378;DHT22;32083;47.360;9.650;2023-03-14T10:29:35;12.10;99.90
46378;DHT22;32083;47.360;9.650;2023-03-14T10:32:21;12.10;99.90
46378;DHT22;32083;47.360;9.650;2023-03-14T10:38:01;12.20;99.90
46378;DHT22;32083;47.360;9.650;2023-03-14T10:40:40;12.20;99.90
46378;DHT22;32083;47.360;9.650;2023-03-14T10:43:13;12.30;99.90
46378;DHT22;32083;47.360;9.650;2023-03-14T10:45:44;12.40;99.90
46378;DHT22;32083;47.360;9.650;2023-03-14T10:51:07;12.30;99.90
46378;DHT22;32083;47.360;9.650;2023-03-14T10:53:44;12.40;99.90
46378;DHT22;32083;47.360;9.650;2023-03-14T10:56:20;12.40;99.90
46378;DHT22;32083;47.360;9.650;2023-03-14T10:58:48;12.40;99.90
46378;DHT22;32083;47.360;9.650;2023-03-14T11:15:36;12.40;99.90
46378;DHT22;32083;47.360;9.650;2023-03-14T11:18:36;12.40;99.90
46378;DHT22;32083;47.360;9.650;2023-03-14T11:24:05;12.40;99.90
46378;DHT22;32083;47.360;9.650;2023-03-14T11:27:40;12.40;99.90
46378;DHT22;32083;47.360;9.650;2023-03-14T11:29:41;12.40;99.90
46378;DHT22;32083;47.360;9.650;2023-03-14T11:32:19;12.50;99.90
46378;DHT22;32083;47.360;9.650;2023-03-14T11:34:53;12.50;99.90
46378;DHT22;32083;47.360;9.650;2023-03-14T11:40:27;12.60;99.90
46378;DHT22;32083;47.360;9.650;2023-03-14T11:43:00;12.60;99.90
46378;DHT22;32083;47.360;9.650;2023-03-14T11:45:37;12.60;99.90
46378;DHT22;32083;47.360;9.650;2023-03-14T11:50:34;12.60;99.90
46378;DHT22;32083;47.360;9.650;2023-03-14T11:53:16;12.60;99.90
46378;DHT22;32083;47.360;9.650;2023-03-14T11:55:45;12.60;99.90
46378;DHT22;32083;47.360;9.650;2023-03-14T11:58:23;12.60;99.90
46378;DHT22;32083;47.360;9.650;2023-03-14T12:00:52;12.60;99.90
46378;DHT22;32083;47.360;9.650;2023-03-14T12:03:45;12.60;99.90
46378;DHT22;32083;47.360;9.650;2023-03-14T12:06:28;12.50;99.90
46378;DHT22;32083;47.360;9.650;2023-03-14T12:09:00;12.50;99.90
46378;DHT22;32083;47.360;9.650;2023-03-14T12:14:36;12.30;99.90
46378;DHT22;32083;47.360;9.650;2023-03-14T12:17:07;12.20;99.90
46378;DHT22;32083;47.360;9.650;2023-03-14T12:19:43;12.20;99.90
46378;DHT22;32083;47.360;9.650;2023-03-14T12:22:28;12.00;99.90
46378;DHT22;32083;47.360;9.650;2023-03-14T12:33:31;11.50;99.90
46378;DHT22;32083;47.360;9.650;2023-03-14T12:35:59;11.30;99.90
46378;DHT22;32083;47.360;9.650;2023-03-14T12:43:46;10.90;99.90
46378;DHT22;32083;47.360;9.650;2023-03-14T12:48:49;10.80;99.90
46378;DHT22;32083;47.360;9.650;2023-03-14T12:51:20;10.70;99.90
46378;DHT22;32083;47.360;9.650;2023-03-14T12:59:09;10.50;99.90
46378;DHT22;32083;47.360;9.650;2023-03-14T13:01:47;10.40;99.90
46378;DHT22;32083;47.360;9.650;2023-03-14T13:04:14;10.40;99.90
46378;DHT22;32083;47.360;9.650;2023-03-14T13:06:58;10.30;99.90
46378;DHT22;32083;47.360;9.650;2023-03-14T13:12:07;10.20;99.90
46378;DHT22;32083;47.360;9.650;2023-03-14T13:14:35;10.10;99.90
46378;DHT22;32083;47.360;9.650;2023-03-14T13:17:01;10.20;99.90
46378;DHT22;32083;47.360;9.650;2023-03-14T13:19:30;10.20;99.90
46378;DHT22;32083;47.360;9.650;2023-03-14T13:22:03;10.20;99.90
46378;DHT22;32083;47.360;9.650;2023-03-14T13:24:33;10.20;99.90
46378;DHT22;32083;47.360;9.650;2023-03-14T13:27:00;10.30;99.90
46378;DHT22;32083;47.360;9.650;2023-03-14T13:29:31;10.30;99.90
46378;DHT22;32083;47.360;9.650;2023-03-14T13:32:00;10.30;99.90
46378;DHT22;32083;47.360;9.650;2023-03-14T13:34:30;10.30;99.90
46378;DHT22;32083;47.360;9.650;2023-03-14T13:36:57;10.30;99.90
46378;DHT22;32083;47.360;9.650;2023-03-14T13:39:25;10.30;99.90
46378;DHT22;32083;47.360;9.650;2023-03-14T13:41:52;10.20;99.70
46378;DHT22;32083;47.360;9.650;2023-03-14T13:44:26;10.20;99.90
46378;DHT22;32083;47.360;9.650;2023-03-14T13:46:52;10.30;99.90
46378;DHT22;32083;47.360;9.650;2023-03-14T13:49:24;10.30;99.50
46378;DHT22;32083;47.360;9.650;2023-03-14T13:51:50;10.40;99.90
46378;DHT22;32083;47.360;9.650;2023-03-14T13:54:19;10.30;99.90
46378;DHT22;32083;47.360;9.650;2023-03-14T13:56:45;10.30;99.80
46378;DHT22;32083;47.360;9.650;2023-03-14T13:59:31;10.30;99.90
46378;DHT22;32083;47.360;9.650;2023-03-14T14:02:00;10.30;99.90
46378;DHT22;32083;47.360;9.650;2023-03-14T14:04:29;10.30;99.90
46378;DHT22;32083;47.360;9.650;2023-03-14T14:06:59;10.30;99.90
46378;DHT22;32083;47.360;9.650;2023-03-14T14:09:28;10.30;99.90
46378;DHT22;32083;47.360;9.650;2023-03-14T14:16:53;10.20;99.90
46378;DHT22;32083;47.360;9.650;2023-03-14T14:19:22;10.10;99.90
46378;DHT22;32083;47.360;9.650;2023-03-14T14:21:49;10.00;99.90
46378;DHT22;32083;47.360;9.650;2023-03-14T14:24:16;9.90;99.90
46378;DHT22;32083;47.360;9.650;2023-03-14T14:27:00;9.80;99.90
46378;DHT22;32083;47.360;9.650;2023-03-14T14:29:31;9.70;99.90
46378;DHT22;32083;47.360;9.650;2023-03-14T14:32:03;9.80;99.90
46378;DHT22;32083;47.360;9.650;2023-03-14T14:37:29;9.70;99.90
46378;DHT22;32083;47.360;9.650;2023-03-14T14:39:58;9.60;99.90
46378;DHT22;32083;47.360;9.650;2023-03-14T14:42:27;9.60;99.90
46378;DHT22;32083;47.360;9.650;2023-03-14T14:44:55;9.60;99.90
46378;DHT22;32083;47.360;9.650;2023-03-14T14:47:24;9.70;99.90
46378;DHT22;32083;47.360;9.650;2023-03-14T14:49:52;9.60;99.90
46378;DHT22;32083;47.360;9.650;2023-03-14T14:52:33;9.60;99.90
46378;DHT22;32083;47.360;9.650;2023-03-14T14:55:01;9.60;99.90
46378;DHT22;32083;47.360;9.650;2023-03-14T14:57:37;9.60;99.90
46378;DHT22;32083;47.360;9.650;2023-03-14T15:00:19;9.60;99.90
46378;DHT22;32083;47.360;9.650;2023-03-14T15:02:47;9.50;99.90
46378;DHT22;32083;47.360;9.650;2023-03-14T15:05:17;9.40;99.90
46378;DHT22;32083;47.360;9.650;2023-03-14T15:07:43;9.40;99.90
46378;DHT22;32083;47.360;9.650;2023-03-14T15:10:18;9.30;99.90
46378;DHT22;32083;47.360;9.650;2023-03-14T15:12:44;9.30;99.90
46378;DHT22;32083;47.360;9.650;2023-03-14T15:15:11;9.30;99.90
46378;DHT22;32083;47.360;9.650;2023-03-14T15:17:37;9.30;99.90
46378;DHT22;32083;47.360;9.650;2023-03-14T15:20:11;9.30;99.90
46378;DHT22;32083;47.360;9.650;2023-03-14T15:22:39;9.30;99.90
46378;DHT22;32083;47.360;9.650;2023-03-14T15:25:06;9.30;99.90
46378;DHT22;32083;47.360;9.650;2023-03-14T15:27:32;9.20;99.90
46378;DHT22;32083;47.360;9.650;2023-03-14T15:29:58;9.20;99.90
46378;DHT22;32083;47.360;9.650;2023-03-14T15:32:27;9.10;99.90
46378;DHT22;32083;47.360;9.650;2023-03-14T15:34:56;9.00;99.90
46378;DHT22;32083;47.360;9.650;2023-03-14T15:37:25;8.80;99.90
46378;DHT22;32083;47.360;9.650;2023-03-14T15:39:51;8.60;99.90
46378;DHT22;32083;47.360;9.650;2023-03-14T15:42:17;8.50;99.90
46378;DHT22;32083;47.360;9.650;2023-03-14T15:44:43;8.50;99.90
46378;DHT22;32083;47.360;9.650;2023-03-14T15:47:10;8.40;99.90
46378;DHT22;32083;47.360;9.650;2023-03-14T15:49:36;8.40;99.90
46378;DHT22;32083;47.360;9.650;2023-03-14T15:52:02;8.40;99.90
46378;DHT22;32083;47.360;9.650;2023-03-14T15:54:28;8.40;99.90
46378;DHT22;32083;47.360;9.650;2023-03-14T15:56:57;8.50;99.90
46378;DHT22;32083;47.360;9.650;2023-03-14T15:59:24;8.60;99.90
46378;DHT22;32083;47.360;9.650;2023-03-14T16:01:50;8.60;99.90
46378;DHT22;32083;47.360;9.650;2023-03-14T16:04:17;8.70;99.90
46378;DHT22;32083;47.360;9.650;2023-03-14T16:06:44;8.60;99.90
46378;DHT22;32083;47.360;9.650;2023-03-14T16:09:12;8.60;99.90
46378;DHT22;32083;47.360;9.650;2023-03-14T16:11:38;8.50;99.90
46378;DHT22;32083;47.360;9.650;2023-03-14T16:14:04;8.50;99.90
46378;DHT22;32083;47.360;9.650;2023-03-14T16:16:30;8.30;99.90
46378;DHT22;32083;47.360;9.650;2023-03-14T16:18:56;8.30;99.90
46378;DHT22;32083;47.360;9.650;2023-03-14T16:21:22;8.30;99.90
46378;DHT22;32083;47.360;9.650;2023-03-14T16:23:48;8.30;99.90
46378;DHT22;32083;47.360;9.650;2023-03-14T16:26:16;8.40;99.90
46378;DHT22;32083;47.360;9.650;2023-03-14T16:28:43;8.40;99.90
46378;DHT22;32083;47.360;9.650;2023-03-14T16:31:12;8.40;99.90
46378;DHT22;32083;47.360;9.650;2023-03-14T16:33:39;8.40;99.90
46378;DHT22;32083;47.360;9.650;2023-03-14T16:36:07;8.50;99.90
46378;DHT22;32083;47.360;9.650;2023-03-14T16:38:34;8.50;99.90
46378;DHT22;32083;47.360;9.650;2023-03-14T16:41:09;8.50;99.90
46378;DHT22;32083;47.360;9.650;2023-03-14T16:43:35;8.60;99.90
46378;DHT22;32083;47.360;9.650;2023-03-14T16:46:06;8.60;99.90
46378;DHT22;32083;47.360;9.650;2023-03-14T16:48:33;8.70;99.90
46378;DHT22;32083;47.360;9.650;2023-03-14T16:50:59;8.70;99.90
46378;DHT22;32083;47.360;9.650;2023-03-14T16:53:25;8.70;99.90
46378;DHT22;32083;47.360;9.650;2023-03-14T16:55:53;8.70;99.90
46378;DHT22;32083;47.360;9.650;2023-03-14T16:58:19;8.70;99.90
46378;DHT22;32083;47.360;9.650;2023-03-14T17:00:46;8.70;99.90
46378;DHT22;32083;47.360;9.650;2023-03-14T17:03:13;8.70;99.90
46378;DHT22;32083;47.360;9.650;2023-03-14T17:05:45;8.70;99.90
46378;DHT22;32083;47.360;9.650;2023-03-14T17:08:11;8.70;99.90
46378;DHT22;32083;47.360;9.650;2023-03-14T17:10:37;8.60;99.90
46378;DHT22;32083;47.360;9.650;2023-03-14T17:13:03;8.50;99.90
46378;DHT22;32083;47.360;9.650;2023-03-14T17:15:29;8.30;99.90
46378;DHT22;32083;47.360;9.650;2023-03-14T17:17:55;8.10;99.90
46378;DHT22;32083;47.360;9.650;2023-03-14T17:20:21;8.10;99.90
46378;DHT22;32083;47.360;9.650;2023-03-14T17:22:49;8.00;99.90
46378;DHT22;32083;47.360;9.650;2023-03-14T17:25:15;7.90;99.90
46378;DHT22;32083;47.360;9.650;2023-03-14T17:27:41;7.90;99.90
46378;DHT22;32083;47.360;9.650;2023-03-14T17:30:07;7.80;99.90
46378;DHT22;32083;47.360;9.650;2023-03-14T17:32:33;7.80;99.90
46378;DHT22;32083;47.360;9.650;2023-03-14T17:34:59;7.80;99.90
46378;DHT22;32083;47.360;9.650;2023-03-14T17:37:25;7.70;99.90
46378;DHT22;32083;47.360;9.650;2023-03-14T17:39:51;7.60;99.90
46378;DHT22;32083;47.360;9.650;2023-03-14T17:42:17;7.50;99.90
46378;DHT22;32083;47.360;9.650;2023-03-14T17:44:43;7.50;99.90
46378;DHT22;32083;47.360;9.650;2023-03-14T17:47:11;7.50;99.90
46378;DHT22;32083;47.360;9.650;2023-03-14T17:49:37;7.50;99.90
46378;DHT22;32083;47.360;9.650;2023-03-14T17:52:04;7.50;99.90
46378;DHT22;32083;47.360;9.650;2023-03-14T17:54:33;7.50;99.90
46378;DHT22;32083;47.360;9.650;2023-03-14T17:56:59;7.50;99.90
46378;DHT22;32083;47.360;9.650;2023-03-14T17:59:25;7.50;99.90
46378;DHT22;32083;47.360;9.650;2023-03-14T18:01:51;7.50;99.90
46378;DHT22;32083;47.360;9.650;2023-03-14T18:04:17;7.60;99.90
46378;DHT22;32083;47.360;9.650;2023-03-14T18:06:44;7.70;99.90
46378;DHT22;32083;47.360;9.650;2023-03-14T18:09:10;7.60;99.90
46378;DHT22;32083;47.360;9.650;2023-03-14T18:11:36;7.50;99.90
46378;DHT22;32083;47.360;9.650;2023-03-14T18:14:02;7.50;99.90
46378;DHT22;32083;47.360;9.650;2023-03-14T18:16:32;7.60;99.90
46378;DHT22;32083;47.360;9.650;2023-03-14T18:18:58;7.60;99.90
46378;DHT22;32083;47.360;9.650;2023-03-14T18:21:25;7.50;99.90
46378;DHT22;32083;47.360;9.650;2023-03-14T18:23:53;7.60;99.90
46378;DHT22;32083;47.360;9.650;2023-03-14T18:26:19;7.50;99.90
46378;DHT22;32083;47.360;9.650;2023-03-14T18:28:46;7.50;99.90
46378;DHT22;32083;47.360;9.650;2023-03-14T18:31:13;7.60;99.90
46378;DHT22;32083;47.360;9.650;2023-03-14T18:33:47;7.60;99.90
46378;DHT22;32083;47.360;9.650;2023-03-14T18:36:13;7.60;99.90
46378;DHT22;32083;47.360;9.650;2023-03-14T18:38:40;7.50;99.90
46378;DHT22;32083;47.360;9.650;2023-03-14T18:41:12;7.50;99.90
46378;DHT22;32083;47.360;9.650;2023-03-14T18:43:38;7.40;99.90
46378;DHT22;32083;47.360;9.650;2023-03-14T18:46:05;7.40;99.90
46378;DHT22;32083;47.360;9.650;2023-03-14T18:48:31;7.40;99.90
46378;DHT22;32083;47.360;9.650;2023-03-14T18:50:58;7.40;99.90
46378;DHT22;32083;47.360;9.650;2023-03-14T18:53:24;7.40;99.90
46378;DHT22;32083;47.360;9.650;2023-03-14T18:56:00;7.40;99.90
46378;DHT22;32083;47.360;9.650;2023-03-14T18:58:27;7.50;99.90
46378;DHT22;32083;47.360;9.650;2023-03-14T19:00:57;7.40;99.90
46378;DHT22;32083;47.360;9.650;2023-03-14T19:03:24;7.30;99.90
46378;DHT22;32083;47.360;9.650;2023-03-14T19:05:51;7.30;99.90
46378;DHT22;32083;47.360;9.650;2023-03-14T19:08:17;7.30;99.90
46378;DHT22;32083;47.360;9.650;2023-03-14T19:10:44;7.30;99.90
46378;DHT22;32083;47.360;9.650;2023-03-14T19:13:10;7.30;99.90
46378;DHT22;32083;47.360;9.650;2023-03-14T19:15:36;7.20;99.90
46378;DHT22;32083;47.360;9.650;2023-03-14T19:18:02;7.20;99.90
46378;DHT22;32083;47.360;9.650;2023-03-14T19:20:28;7.20;99.90
46378;DHT22;32083;47.360;9.650;2023-03-14T19:22:54;7.10;99.90
46378;DHT22;32083;47.360;9.650;2023-03-14T19:25:23;7.10;99.90
46378;DHT22;32083;47.360;9.650;2023-03-14T19:27:49;7.20;99.90
46378;DHT22;32083;47.360;9.650;2023-03-14T19:30:15;7.20;99.90
46378;DHT22;32083;47.360;9.650;2023-03-14T19:32:41;7.20;99.90
46378;DHT22;32083;47.360;9.650;2023-03-14T19:35:07;7.20;99.90
46378;DHT22;32083;47.360;9.650;2023-03-14T19:37:33;7.20;99.90
46378;DHT22;32083;47.360;9.650;2023-03-14T19:39:59;7.20;99.90
46378;DHT22;32083;47.360;9.650;2023-03-14T19:42:25;7.20;99.90
46378;DHT22;32083;47.360;9.650;2023-03-14T19:44:51;7.20;99.90
46378;DHT22;32083;47.360;9.650;2023-03-14T19:47:18;7.20;99.90
46378;DHT22;32083;47.360;9.650;2023-03-14T19:49:45;7.10;99.90
46378;DHT22;32083;47.360;9.650;2023-03-14T19:52:11;7.10;99.90
46378;DHT22;32083;47.360;9.650;2023-03-14T19:54:37;7.10;99.90
46378;DHT22;32083;47.360;9.650;2023-03-14T19:57:03;7.00;99.90
46378;DHT22;32083;47.360;9.650;2023-03-14T19:59:30;7.00;99.90
46378;DHT22;32083;47.360;9.650;2023-03-14T20:01:56;7.00;99.90
46378;DHT22;32083;47.360;9.650;2023-03-14T20:04:23;6.90;99.90
46378;DHT22;32083;47.360;9.650;2023-03-14T20:06:53;6.70;99.90
46378;DHT22;32083;47.360;9.650;2023-03-14T20:09:19;6.70;99.90
46378;DHT22;32083;47.360;9.650;2023-03-14T20:11:45;6.70;99.90
46378;DHT22;32083;47.360;9.650;2023-03-14T20:14:12;6.70;99.90
46378;DHT22;32083;47.360;9.650;2023-03-14T20:16:40;6.70;99.90
46378;DHT22;32083;47.360;9.650;2023-03-14T20:19:08;6.70;99.90
46378;DHT22;32083;47.360;9.650;2023-03-14T20:21:34;6.70;99.90
46378;DHT22;32083;47.360;9.650;2023-03-14T20:24:00;6.70;99.90
46378;DHT22;32083;47.360;9.650;2023-03-14T20:26:28;6.60;99.90
46378;DHT22;32083;47.360;9.650;2023-03-14T20:28:54;6.30;99.90
46378;DHT22;32083;47.360;9.650;2023-03-14T20:31:20;6.10;99.90
46378;DHT22;32083;47.360;9.650;2023-03-14T20:33:46;6.10;99.90
46378;DHT22;32083;47.360;9.650;2023-03-14T20:36:13;6.00;99.90
46378;DHT22;32083;47.360;9.650;2023-03-14T20:38:39;6.00;99.90
46378;DHT22;32083;47.360;9.650;2023-03-14T20:41:05;6.10;99.90
46378;DHT22;32083;47.360;9.650;2023-03-14T20:43:33;6.10;99.90
46378;DHT22;32083;47.360;9.650;2023-03-14T20:45:59;6.20;99.90
46378;DHT22;32083;47.360;9.650;2023-03-14T20:48:26;6.20;99.90
46378;DHT22;32083;47.360;9.650;2023-03-14T20:50:52;6.20;99.90
46378;DHT22;32083;47.360;9.650;2023-03-14T20:53:19;6.20;99.90
46378;DHT22;32083;47.360;9.650;2023-03-14T20:55:46;6.20;99.90
46378;DHT22;32083;47.360;9.650;2023-03-14T20:58:13;5.80;99.90
46378;DHT22;32083;47.360;9.650;2023-03-14T21:00:40;5.70;99.90
46378;DHT22;32083;47.360;9.650;2023-03-14T21:03:09;5.40;99.90
46378;DHT22;32083;47.360;9.650;2023-03-14T21:05:35;5.50;99.90
46378;DHT22;32083;47.360;9.650;2023-03-14T21:08:01;5.40;99.90
46378;DHT22;32083;47.360;9.650;2023-03-14T21:10:28;5.50;99.90
46378;DHT22;32083;47.360;9.650;2023-03-14T21:12:53;5.50;99.90
46378;DHT22;32083;47.360;9.650;2023-03-14T21:15:19;5.50;99.90
46378;DHT22;32083;47.360;9.650;2023-03-14T21:17:46;5.50;99.90
46378;DHT22;32083;47.360;9.650;2023-03-14T21:20:12;5.60;99.90
46378;DHT22;32083;47.360;9.650;2023-03-14T21:22:38;5.60;99.90
46378;DHT22;32083;47.360;9.650;2023-03-14T21:25:05;5.60;99.90
46378;DHT22;32083;47.360;9.650;2023-03-14T21:27:31;5.70;99.90
46378;DHT22;32083;47.360;9.650;2023-03-14T21:29:58;5.70;99.90
46378;DHT22;32083;47.360;9.650;2023-03-14T21:32:24;5.80;99.90
46378;DHT22;32083;47.360;9.650;2023-03-14T21:34:50;5.90;99.90
46378;DHT22;32083;47.360;9.650;2023-03-14T21:37:17;6.00;99.90
46378;DHT22;32083;47.360;9.650;2023-03-14T21:39:43;6.00;99.90